Millenium Air

Millenium Air Since 1998



 METAR AND TAF INFORMATION
METAR FOR EGNT
ADDS - METARS form results

(0626 UTC 18 April 2021)
Data provider http://aviationweather.gov/metar/data/
 
METAR text: EGNT 180620Z 17004KT 140V200 CAVOK 04/M01 Q1025
Conditions at: EGNT (NEWCASTLE , GB) observed 0620 UTC 18 April 2021
Temperature: 4.0°C (39°F)
Dewpoint: -1.0°C (30°F) [RH = 70%]
Pressure (altimeter): 30.27 inches Hg (1025.0 mb)
Winds: from the S (170 degrees) at 5 MPH (4 knots; 2.1 m/s)
Visibility: 6 or more miles (10+ km)
Ceiling: ceiling and visibility are OK
Clouds: unknown
Weather: no significant weather observed at this time

METAR text: EGNT 180550Z VRB01KT CAVOK 04/00 Q1025
Conditions at: EGNT (NEWCASTLE , GB) observed 0550 UTC 18 April 2021
Temperature: 4.0°C (39°F)
Dewpoint: 0.0°C (32°F) [RH = 75%]
Pressure (altimeter): 30.27 inches Hg (1025.0 mb)
Winds: variable direction winds at 1 MPH (1 knots; 0.5 m/s)
Visibility: 6 or more miles (10+ km)
Ceiling: ceiling and visibility are OK
Clouds: unknown
Weather: no significant weather observed at this time

Forecast for: EGNT (NEWCASTLE , GB)
Text: TAF EGNT 180453Z 1806/1906 18003KT CAVOK
Forecast period: 0600 to 1200 UTC 18 April 2021
Forecast type: FROM: standard forecast or significant change
Winds: from the S (180 degrees) at 3 MPH (3 knots; 1.5 m/s)
Visibility: 6 or more miles (10+ km)
Ceiling: unknown
Clouds: missing
Weather: NSW  (no significant weather)
Text: BECMG 1812/1815 11010KT
Forecast period: 1200 to 1800 UTC 18 April 2021
Forecast type: BECOMING: Conditions expected to become as follows by 1500 UTC 18 April 2021
Winds: from the ESE (110 degrees) at 12 MPH (10 knots; 5.1 m/s)
Visibility: 6 or more miles (10+ km)
Ceiling: unknown
Clouds: missing
Weather: NSW  (no significant weather)
Text: BECMG 1818/1821 VRB03KT
Forecast period: 1800 UTC 18 April 2021 to 0600 UTC 19 April 2021
Forecast type: BECOMING: Conditions expected to become as follows by 2100 UTC 18 April 2021
Winds: variable direction winds at 3 MPH (3 knots; 1.5 m/s)
Visibility: 6 or more miles (10+ km)
Ceiling: unknown
Clouds: missing
Weather: NSW  (no significant weather)
Text: PROB30 1900/1906 0300 FG VV///
Forecast period: 0000 to 0600 UTC 19 April 2021
Forecast type: PROBABLE: 30 percent likelihood of the following during this time
Visibility: 0.19 miles (0.31 km)
Ceiling: unknown
Clouds: missing
Weather: FG  (fog)

 AIRPORT MAP

 RUNWAY INFORMATION
Runway 07 Runway length 7642 ft Runway width 151 ft
Runway elevation 263 ft Runway displaced threshold 394 ft Runway heading 65
Runway 25 Runway length 7642 ft Runway width 151 ft
Runway elevation 239 ft Runway displaced threshold 446 ft Runway heading 245

 AIRPORT FREQUENCIES
Type APP Name APP Frequency 124.375 MHZ
Type ATIS Name ATIS Frequency 118.375 MHZ
Type GND Name GND Frequency 121.725 MHZ
Type ILS Name Runway 07/ Frequency 111.5 MHZ
Type TWR Name TWR Frequency 119.7 MHZ

 AIRPORT NEAR NAVIGATION AIDS
Type VOR-DME Name Newcastle Frequency 114250 KHZ